• Join FlightAware (Why Join?)
  • Login
  • US Flag 
10:58AM EST


 

Airport Tracker/Info


-or-


 

Live Flight TrackerFlight Track Log ✈ DAL6034 ✈ 22-May-2013 ✈ KLGA - KMHT

Flight Track Log - Related Links

Times and Time Zones

All times are in EDT time to prevent confusion due to time zone crossing. See the DAL6034 flight status page for this flight to view local times or setup timezone preferences in your user account.

Time Position Orientation Groundspeed Altitude Reporting Facility
EDT Latitude Longitude Course Direction KTS MPH feet Rate Location/Type
08:34PM 40.7667 -73.8000 33° Northeast 189 217 2,200  Level New York TRACON
08:35PM 40.8167 -73.7500 37° Northeast 240 276 4,000 1,800 Climbing New York TRACON
08:36PM 40.8833 -73.7000 30° Northeast 284 327 6,000 2,160 Climbing New York TRACON
08:37PM 40.9500 -73.6500 30° Northeast 289 333 8,400 1,920 Climbing New York TRACON
08:38PM 41.0608 -73.5742 27° Northeast 307 353 11,100 1,620 Climbing Boston Center
08:39PM 41.1520 -73.5670 33° Northeast  Level FlightAware Approximate
08:39PM 41.1553 -73.5153 25° Northeast 318 366 12,600  Level Boston Center
08:40PM 41.2369 -73.4669 24° Northeast 342 394 14,300 1,620 Climbing Boston Center
08:41PM 41.3375 -73.4050 25° Northeast 348 400 15,900 1,500 Climbing Boston Center
08:42PM 41.4214 -73.3536 25° Northeast 361 415 17,300 1,500 Climbing Boston Center
08:43PM 41.5178 -73.2689 33° Northeast 366 421 19,000 1,560 Climbing Boston Center
08:44PM 41.5894 -73.1700 46° Northeast 371 427 20,500 1,440 Climbing Boston Center
08:45PM 41.6856 -73.1211 21° North 355 409 21,900 1,200 Climbing Boston Center
08:46PM 41.7669 -73.1303 355° North 344 396 23,000 540 Climbing Boston Center
08:47PM 41.8708 -73.1511 352° North 349 402 23,000  Level Boston Center
08:48PM 41.9894 -73.1692 354° North 370 426 23,000  Level Boston Center
08:49PM 42.0978 -73.1900 352° North 381 438 23,000 -120 Level Boston Center
08:50PM 42.2039 -73.2053 354° North 386 444 22,800 -600 Descending Boston Center
08:51PM 42.3044 -73.1361 27° Northeast 379 436 21,800 -1,200 Descending Boston Center
08:52PM 42.3844 -72.9939 53° Northeast 388 447 20,500 -1,200 Descending Boston Center
08:53PM 42.4539 -72.8706 53° Northeast 383 441 19,500 -780 Descending Boston Center
08:54PM 42.5231 -72.7583 50° Northeast 389 448 19,000 -300 Descending Boston Center
08:55PM 42.5878 -72.6431 53° Northeast 389 448 19,000  Level Boston Center
08:56PM 42.6442 -72.5531 50° Northeast 389 448 19,000 -1,500 Level Boston Center
08:57PM 42.7192 -72.4231 52° Northeast 378 435 16,000 -2,460 Descending Boston Center
08:58PM 42.7797 -72.3186 52° Northeast 365 420 14,100 -2,040 Descending Boston Center
08:59PM 42.8003 -72.1967 77° East 323 372 12,000 -1,920 Descending Boston Center
09:00PM 42.8125 -72.0750 82° East 323 372 10,300 -1,680 Descending Boston Center
09:02PM 42.8456 -71.9700 67° East 305 351 8,400 -1,620 Descending Boston Center
09:03PM 42.9033 -71.8761 50° Northeast 291 335 6,800 -1,800 Descending Boston Center
09:04PM 42.9611 -71.7875 48° Northeast 285 328 4,900 -1,320 Descending Boston Center
09:05PM 43.0089 -71.7217 45° Northeast 275 316 4,000 -960 Descending Boston Center
09:06PM 43.0561 -71.6303 55° Northeast 251 289 2,800 -840 Descending Boston Center
09:07PM 43.0825 -71.5531 65° Northeast 212 244 2,400 -360 Descending Boston Center
09:08PM 43.0531 -71.5139 136° Southeast 157 181 2,100 -300 Descending Boston Center